sensor_id;sensor_type;location;lat;lon;timestamp;temperature;humidity
431;DHT22;202;48.764;9.172;2023-08-01T13:33:28;23.40;23.60
431;DHT22;202;48.764;9.172;2023-08-01T13:36:41;23.40;23.40
431;DHT22;202;48.764;9.172;2023-08-01T13:40:18;23.30;24.80
431;DHT22;202;48.764;9.172;2023-08-01T13:43:05;23.30;26.10
431;DHT22;202;48.764;9.172;2023-08-01T14:04:05;23.30;25.20
431;DHT22;202;48.764;9.172;2023-08-01T14:07:11;23.40;24.60
431;DHT22;202;48.764;9.172;2023-08-01T14:11:03;23.40;24.40
431;DHT22;202;48.764;9.172;2023-08-01T14:13:28;23.30;24.30
431;DHT22;202;48.764;9.172;2023-08-01T16:21:22;23.60;21.00
431;DHT22;202;48.764;9.172;2023-08-01T16:24:22;23.60;21.80
431;DHT22;202;48.764;9.172;2023-08-01T16:27:13;23.50;21.80
431;DHT22;202;48.764;9.172;2023-08-01T16:30:49;23.50;21.80
431;DHT22;202;48.764;9.172;2023-08-01T16:36:46;23.40;21.70
431;DHT22;202;48.764;9.172;2023-08-01T16:39:27;23.40;21.20
431;DHT22;202;48.764;9.172;2023-08-01T16:41:59;23.40;21.60
431;DHT22;202;48.764;9.172;2023-08-01T16:44:29;23.50;21.00
431;DHT22;202;48.764;9.172;2023-08-01T16:47:26;23.40;20.90
431;DHT22;202;48.764;9.172;2023-08-01T16:50:16;23.40;20.10
431;DHT22;202;48.764;9.172;2023-08-01T16:52:57;23.40;20.30
431;DHT22;202;48.764;9.172;2023-08-01T16:55:30;23.30;20.50
431;DHT22;202;48.764;9.172;2023-08-01T16:58:06;23.30;20.70
431;DHT22;202;48.764;9.172;2023-08-01T17:00:38;23.30;21.00
431;DHT22;202;48.764;9.172;2023-08-01T17:03:42;23.20;20.70
431;DHT22;202;48.764;9.172;2023-08-01T17:06:22;23.30;20.80
431;DHT22;202;48.764;9.172;2023-08-01T17:09:09;23.20;21.30
431;DHT22;202;48.764;9.172;2023-08-01T17:11:39;23.20;21.30
431;DHT22;202;48.764;9.172;2023-08-01T17:14:22;23.20;20.80
431;DHT22;202;48.764;9.172;2023-08-01T17:16:49;23.20;21.30
431;DHT22;202;48.764;9.172;2023-08-01T17:19:35;23.20;21.40
431;DHT22;202;48.764;9.172;2023-08-01T17:22:21;23.20;21.30
431;DHT22;202;48.764;9.172;2023-08-01T17:30:07;22.90;20.80
431;DHT22;202;48.764;9.172;2023-08-01T17:32:34;22.90;21.00
431;DHT22;202;48.764;9.172;2023-08-01T17:35:08;23.00;21.10
431;DHT22;202;48.764;9.172;2023-08-01T17:37:35;22.90;21.50
431;DHT22;202;48.764;9.172;2023-08-01T17:40:03;22.90;20.60
431;DHT22;202;48.764;9.172;2023-08-01T22:59:59;19.60;31.60
431;DHT22;202;48.764;9.172;2023-08-01T23:03:00;19.50;32.00
431;DHT22;202;48.764;9.172;2023-08-01T23:05:53;19.50;32.00
431;DHT22;202;48.764;9.172;2023-08-01T23:08:29;19.50;32.40
431;DHT22;202;48.764;9.172;2023-08-01T23:11:33;19.50;32.00
431;DHT22;202;48.764;9.172;2023-08-01T23:14:18;19.50;32.00
431;DHT22;202;48.764;9.172;2023-08-01T23:17:05;19.40;31.90
431;DHT22;202;48.764;9.172;2023-08-01T23:19:44;19.50;32.00
431;DHT22;202;48.764;9.172;2023-08-01T23:22:17;19.40;31.90
431;DHT22;202;48.764;9.172;2023-08-01T23:25:06;19.40;32.20
431;DHT22;202;48.764;9.172;2023-08-01T23:27:37;19.30;32.50
431;DHT22;202;48.764;9.172;2023-08-01T23:30:15;19.30;32.70
431;DHT22;202;48.764;9.172;2023-08-01T23:32:52;19.10;33.40
431;DHT22;202;48.764;9.172;2023-08-01T23:35:19;18.90;33.90
431;DHT22;202;48.764;9.172;2023-08-01T23:37:48;18.80;34.50
431;DHT22;202;48.764;9.172;2023-08-01T23:40:16;18.90;34.70
431;DHT22;202;48.764;9.172;2023-08-01T23:42:46;18.90;34.30
431;DHT22;202;48.764;9.172;2023-08-01T23:45:15;18.90;34.40
431;DHT22;202;48.764;9.172;2023-08-01T23:47:44;19.00;34.40
431;DHT22;202;48.764;9.172;2023-08-01T23:50:13;19.00;34.60
431;DHT22;202;48.764;9.172;2023-08-01T23:52:42;19.10;34.50
431;DHT22;202;48.764;9.172;2023-08-01T23:55:09;19.20;34.00
431;DHT22;202;48.764;9.172;2023-08-01T23:57:35;19.20;34.10
